createdAt,value
2019-02-12T00:01:08.096Z,10.33
2019-02-12T00:03:37.517Z,10.83
2019-02-12T00:06:06.894Z,11.77
2019-02-12T00:08:36.489Z,11.50
2019-02-12T00:11:06.150Z,11.63
2019-02-12T00:13:35.533Z,12.00
2019-02-12T00:16:04.921Z,11.67
2019-02-12T00:18:34.853Z,11.25
2019-02-12T00:21:09.112Z,11.30
2019-02-12T00:23:35.495Z,11.57
2019-02-12T00:26:08.237Z,11.47
2019-02-12T00:28:39.668Z,11.20
2019-02-12T00:31:08.986Z,10.47
2019-02-12T00:33:41.660Z,8.53
2019-02-12T00:36:16.651Z,9.40
2019-02-12T00:38:48.293Z,9.70
2019-02-12T00:41:19.236Z,9.57
2019-02-12T00:43:53.469Z,8.83
2019-02-12T00:46:30.839Z,8.40
2019-02-12T00:49:06.285Z,7.62
2019-02-12T00:51:35.850Z,8.10
2019-02-12T00:54:06.629Z,6.93
2019-02-12T00:56:36.002Z,7.50
2019-02-12T00:59:05.390Z,7.30
2019-02-12T01:01:38.556Z,7.43
2019-02-12T01:04:16.527Z,7.93
2019-02-12T01:06:45.966Z,7.83
2019-02-12T01:09:19.213Z,7.50
2019-02-12T01:11:50.716Z,8.90
2019-02-12T01:14:21.699Z,7.37
2019-02-12T01:16:53.133Z,8.77
2019-02-12T01:19:26.850Z,9.23
2019-02-12T01:21:59.637Z,8.07
2019-02-12T01:24:33.402Z,8.98
2019-02-12T01:27:07.322Z,8.20
2019-02-12T01:29:36.784Z,9.30
2019-02-12T01:32:06.120Z,9.20
2019-02-12T01:34:36.225Z,9.10
2019-02-12T01:37:14.445Z,12.10
2019-02-12T01:39:45.058Z,9.37
2019-02-12T01:42:18.597Z,9.00
2019-02-12T01:44:49.666Z,10.65
2019-02-12T01:47:23.009Z,9.37
2019-02-12T01:49:52.707Z,8.87
2019-02-12T01:52:23.109Z,10.12
2019-02-12T01:54:57.003Z,11.13
2019-02-12T01:57:28.161Z,11.90
2019-02-12T01:59:57.540Z,10.00
2019-02-12T02:02:26.960Z,11.20
2019-02-12T02:04:57.106Z,10.40
2019-02-12T02:07:29.671Z,9.40
2019-02-12T02:10:00.708Z,9.60
2019-02-12T02:12:33.821Z,10.30
2019-02-12T02:15:07.431Z,8.30
2019-02-12T02:17:40.959Z,7.83
2019-02-12T02:20:11.724Z,9.87
2019-02-12T02:22:42.429Z,10.95
2019-02-12T02:25:12.180Z,8.90
2019-02-12T02:27:44.608Z,9.10
2019-02-12T02:30:17.189Z,9.90
2019-02-12T02:32:52.657Z,9.73
2019-02-12T02:35:29.924Z,11.18
2019-02-12T02:38:00.795Z,11.10
2019-02-12T02:40:31.284Z,10.95
2019-02-12T02:43:00.651Z,11.17
2019-02-12T02:45:30.936Z,10.20
2019-02-12T02:48:00.361Z,11.10
2019-02-12T02:50:30.252Z,11.40
2019-02-12T02:53:00.537Z,11.23
2019-02-12T02:55:29.866Z,9.43
2019-02-12T02:57:59.294Z,10.87
2019-02-12T03:00:28.987Z,11.10
2019-02-12T03:02:58.565Z,11.30
2019-02-12T03:05:30.145Z,11.50
2019-02-12T03:08:02.101Z,11.57
2019-02-12T03:10:36.675Z,10.70
2019-02-12T03:13:11.659Z,10.97
2019-02-12T03:15:44.802Z,10.23
2019-02-12T03:18:18.923Z,10.43
2019-02-12T03:20:49.033Z,9.63
2019-02-12T03:23:18.373Z,11.37
2019-02-12T03:25:48.898Z,10.50
2019-02-12T03:28:18.365Z,10.30
2019-02-12T03:30:49.201Z,10.13
2019-02-12T03:33:18.569Z,10.60
2019-02-12T03:35:50.044Z,11.77
2019-02-12T03:38:22.238Z,10.13
2019-02-12T03:40:54.691Z,9.40
2019-02-12T03:43:24.545Z,9.73
2019-02-12T03:45:53.980Z,12.47
2019-02-12T03:48:24.736Z,11.60
2019-02-12T03:50:54.315Z,10.03
2019-02-12T03:53:29.323Z,9.58
2019-02-12T03:55:58.706Z,10.10
2019-02-12T03:58:33.010Z,10.93
2019-02-12T04:01:02.384Z,10.17
2019-02-12T04:03:31.988Z,13.53
2019-02-12T04:06:01.410Z,11.00
2019-02-12T04:08:36.206Z,10.40
2019-02-12T04:11:05.550Z,11.70
2019-02-12T04:13:35.339Z,10.53
2019-02-12T04:16:04.733Z,10.63
2019-02-12T04:18:36.394Z,11.57
2019-02-12T04:21:05.845Z,11.70
2019-02-12T04:23:36.233Z,11.55
2019-02-12T04:26:06.483Z,12.10
2019-02-12T04:28:39.213Z,10.37
2019-02-12T04:31:13.939Z,10.80
2019-02-12T04:33:43.297Z,10.30
2019-02-12T04:36:16.595Z,8.37
2019-02-12T04:38:46.710Z,9.77
2019-02-12T04:41:18.121Z,9.93
2019-02-12T04:43:49.479Z,10.13
2019-02-12T04:46:18.855Z,9.67
2019-02-12T04:48:48.377Z,9.90
2019-02-12T04:51:19.217Z,10.70
2019-02-12T04:53:48.604Z,11.77
2019-02-12T04:56:18.158Z,9.35
2019-02-12T04:58:47.692Z,10.77
2019-02-12T05:01:19.131Z,10.87
2019-02-12T05:03:49.054Z,9.67
2019-02-12T05:06:23.221Z,10.27
2019-02-12T05:09:13.768Z,11.43
2019-02-12T05:11:46.729Z,12.58
2019-02-12T05:14:20.854Z,12.13
2019-02-12T05:16:50.726Z,12.73
2019-02-12T05:19:21.789Z,11.65
2019-02-12T05:21:53.781Z,12.28
2019-02-12T05:24:23.954Z,10.43
2019-02-12T05:26:53.958Z,11.23
2019-02-12T05:29:23.371Z,7.93
2019-02-12T05:31:55.739Z,6.80
2019-02-12T05:34:25.133Z,7.00
2019-02-12T05:37:00.536Z,8.13
2019-02-12T05:39:29.833Z,9.10
2019-02-12T05:41:59.798Z,10.30
2019-02-12T05:44:31.818Z,9.40
2019-02-12T05:47:06.870Z,9.40
2019-02-12T05:49:38.942Z,10.63
2019-02-12T05:52:10.312Z,9.93
2019-02-12T05:54:41.561Z,8.93
2019-02-12T05:57:14.383Z,9.57
2019-02-12T05:59:47.101Z,8.67
2019-02-12T06:02:20.709Z,9.60
2019-02-12T06:04:52.327Z,6.67
2019-02-12T06:07:21.923Z,9.67
2019-02-12T06:09:58.223Z,9.23
2019-02-12T06:12:28.356Z,7.77
2019-02-12T06:14:57.722Z,9.40
2019-02-12T06:17:27.135Z,9.63
2019-02-12T06:19:56.541Z,8.17
2019-02-12T06:22:25.921Z,9.35
2019-02-12T06:24:55.309Z,9.50
2019-02-12T06:27:24.729Z,8.75
2019-02-12T06:29:54.119Z,8.65
2019-02-12T06:32:23.831Z,8.30
2019-02-12T06:34:56.078Z,8.43
2019-02-12T06:37:30.175Z,8.23
2019-02-12T06:39:59.990Z,7.07
2019-02-12T06:42:29.743Z,8.70
2019-02-12T06:44:59.281Z,7.08
2019-02-12T06:47:28.699Z,8.33
2019-02-12T06:49:59.144Z,8.55
2019-02-12T06:52:28.537Z,7.63
2019-02-12T06:54:57.907Z,8.00
2019-02-12T06:57:28.448Z,6.95
2019-02-12T06:59:58.029Z,7.20
2019-02-12T07:03:03.381Z,7.10
2019-02-12T07:05:34.050Z,7.25
2019-02-12T07:08:51.115Z,6.63
2019-02-12T07:11:35.160Z,7.20
2019-02-12T07:14:17.874Z,6.63
2019-02-12T07:17:43.405Z,5.90
2019-02-12T07:20:29.512Z,7.10
2019-02-12T07:23:37.797Z,6.57
2019-02-12T07:27:05.961Z,7.70
2019-02-12T07:30:12.422Z,5.20
2019-02-12T07:33:13.326Z,5.80
2019-02-12T07:36:13.290Z,5.67
2019-02-12T07:39:09.529Z,6.33
2019-02-12T07:42:23.336Z,6.30
2019-02-12T07:45:43.197Z,4.93
2019-02-12T07:48:39.099Z,5.20
2019-02-12T07:52:01.887Z,5.83
2019-02-12T07:55:22.193Z,5.13
2019-02-12T07:58:28.204Z,5.97
2019-02-12T08:01:05.865Z,5.80
2019-02-12T08:04:32.929Z,4.20
2019-02-12T08:07:52.946Z,4.57
2019-02-12T08:10:56.380Z,5.70
2019-02-12T08:13:48.957Z,5.10
2019-02-12T08:16:51.089Z,4.90
2019-02-12T08:19:58.360Z,4.43
2019-02-12T08:22:58.040Z,5.10
2019-02-12T08:26:00.018Z,4.37
2019-02-12T08:29:27.153Z,4.47
2019-02-12T08:32:20.978Z,4.70
2019-02-12T08:35:30.685Z,4.73
2019-02-12T08:38:23.020Z,3.95
2019-02-12T08:41:45.739Z,4.40
2019-02-12T08:45:09.861Z,4.92
2019-02-12T08:48:08.837Z,4.67
2019-02-12T08:51:25.401Z,3.80
2019-02-12T08:54:33.934Z,4.73
2019-02-12T08:57:47.529Z,3.33
2019-02-12T09:01:15.490Z,4.30
2019-02-12T09:04:34.950Z,3.67
2019-02-12T09:07:28.727Z,4.30
2019-02-12T09:10:22.322Z,3.60
2019-02-12T09:13:29.026Z,3.80
2019-02-12T09:16:49.476Z,3.60
2019-02-12T09:19:52.312Z,4.47
2019-02-12T09:23:00.932Z,3.87
2019-02-12T09:26:02.102Z,3.87
2019-02-12T09:29:02.948Z,5.23
2019-02-12T09:32:09.988Z,4.80
2019-02-12T09:34:57.952Z,4.90
2019-02-12T09:37:57.933Z,5.23
2019-02-12T09:40:56.220Z,5.13
2019-02-12T09:44:11.863Z,4.50
2019-02-12T09:47:46.959Z,4.40
2019-02-12T09:50:40.590Z,5.10
2019-02-12T09:53:58.905Z,6.03
2019-02-12T09:56:56.078Z,3.50
2019-02-12T09:59:51.945Z,4.83
2019-02-12T10:03:04.813Z,4.70
2019-02-12T10:06:21.278Z,4.92
2019-02-12T10:09:08.469Z,6.10
2019-02-12T10:12:23.270Z,4.50
2019-02-12T10:15:43.569Z,4.70
2019-02-12T10:18:35.289Z,4.90
2019-02-12T10:21:43.522Z,5.67
2019-02-12T10:24:41.960Z,4.00
2019-02-12T10:28:00.891Z,4.50
2019-02-12T10:31:15.002Z,4.15
2019-02-12T10:33:44.611Z,4.30
2019-02-12T10:36:15.563Z,4.13
2019-02-12T10:38:46.386Z,5.47
2019-02-12T10:41:17.333Z,4.35
2019-02-12T10:43:48.285Z,5.60
2019-02-12T10:46:18.096Z,5.47
2019-02-12T10:48:48.851Z,3.53
2019-02-12T10:51:19.723Z,4.80
2019-02-12T10:53:50.450Z,4.90
2019-02-12T10:56:20.061Z,3.73
2019-02-12T10:58:50.376Z,4.07
2019-02-12T11:01:20.503Z,4.07
2019-02-12T11:03:52.104Z,3.87
2019-02-12T11:06:22.142Z,5.25
2019-02-12T11:08:51.610Z,3.40
2019-02-12T11:11:24.904Z,3.62
2019-02-12T11:13:55.311Z,4.60
2019-02-12T11:16:26.166Z,4.37
2019-02-12T11:18:56.771Z,3.67
2019-02-12T11:21:30.825Z,4.10
2019-02-12T11:24:01.644Z,4.57
2019-02-12T11:26:32.806Z,5.17
2019-02-12T11:29:02.175Z,4.37
2019-02-12T11:31:36.106Z,4.37
2019-02-12T11:34:08.374Z,4.40
2019-02-12T11:36:41.636Z,3.90
2019-02-12T11:39:12.447Z,3.10
2019-02-12T11:41:44.365Z,3.47
2019-02-12T11:44:13.787Z,3.13
2019-02-12T11:46:43.152Z,3.25
2019-02-12T11:49:14.138Z,3.33
2019-02-12T11:51:43.683Z,3.43
2019-02-12T11:54:14.449Z,2.80
2019-02-12T11:56:43.997Z,2.93
2019-02-12T11:59:13.389Z,4.40
2019-02-12T12:01:44.540Z,3.70
2019-02-12T12:04:26.373Z,4.90
2019-02-12T12:06:56.332Z,4.03
2019-02-12T12:09:26.308Z,10.13
2019-02-12T12:11:55.793Z,2.20
2019-02-12T12:14:25.250Z,7.07
2019-02-12T12:16:54.628Z,5.83
2019-02-12T12:19:25.440Z,3.30
2019-02-12T12:21:59.249Z,5.17
2019-02-12T12:24:29.909Z,6.33
2019-02-12T12:26:59.430Z,9.27
2019-02-12T12:29:30.864Z,12.73
2019-02-12T12:32:00.270Z,10.20
2019-02-12T12:34:31.302Z,10.00
2019-02-12T12:37:02.241Z,9.20
2019-02-12T12:39:33.750Z,8.10
2019-02-12T12:42:03.172Z,4.83
2019-02-12T12:44:33.059Z,4.27
2019-02-12T12:47:02.476Z,8.20
2019-02-12T12:49:33.902Z,6.00
2019-02-12T12:52:05.399Z,4.33
2019-02-12T12:54:35.523Z,4.00
2019-02-12T12:57:05.127Z,5.40
2019-02-12T12:59:35.264Z,14.43
2019-02-12T13:02:05.300Z,12.93
2019-02-12T13:04:35.966Z,8.85
2019-02-12T13:07:06.230Z,4.60
2019-02-12T13:09:36.210Z,11.40
2019-02-12T13:12:11.927Z,4.53
2019-02-12T13:14:42.160Z,9.27
2019-02-12T13:17:12.357Z,6.97
2019-02-12T13:19:43.589Z,5.20
2019-02-12T13:22:12.957Z,10.10
2019-02-12T13:24:43.840Z,8.07
2019-02-12T13:27:15.083Z,3.03
2019-02-12T13:30:03.645Z,2.93
2019-02-12T13:32:33.068Z,2.77
2019-02-12T13:35:02.441Z,3.77
2019-02-12T13:37:35.606Z,4.00
2019-02-12T13:40:07.882Z,3.00
2019-02-12T13:42:40.203Z,3.80
2019-02-12T13:45:13.237Z,3.20
2019-02-12T13:47:42.922Z,3.67
2019-02-12T13:50:13.384Z,3.60
2019-02-12T13:52:43.181Z,2.97
2019-02-12T13:55:17.278Z,3.12
2019-02-12T13:57:45.428Z,3.20
2019-02-12T14:00:16.137Z,3.40
2019-02-12T14:02:45.945Z,3.03
2019-02-12T14:05:18.032Z,2.70
2019-02-12T14:07:48.672Z,2.90
2019-02-12T14:10:19.925Z,3.00
2019-02-12T14:12:49.308Z,3.50
2019-02-12T14:15:19.036Z,2.83
2019-02-12T14:17:49.349Z,3.63
2019-02-12T14:20:19.810Z,3.73
2019-02-12T14:22:49.192Z,4.75
2019-02-12T14:25:25.669Z,4.40
2019-02-12T14:27:51.743Z,4.63
2019-02-12T14:30:21.547Z,3.87
2019-02-12T14:32:51.148Z,9.60
2019-02-12T14:35:22.348Z,9.17
2019-02-12T14:37:53.605Z,6.40
2019-02-12T14:40:24.090Z,12.90
2019-02-12T14:42:53.780Z,9.63
2019-02-12T14:45:23.180Z,6.10
2019-02-12T14:47:56.396Z,10.10
2019-02-12T14:50:25.804Z,9.98
2019-02-12T14:52:55.495Z,10.73
2019-02-12T14:55:33.557Z,10.15
2019-02-12T14:57:58.650Z,8.20
2019-02-12T15:00:28.074Z,7.12
2019-02-12T15:02:57.477Z,6.47
2019-02-12T15:05:26.874Z,6.25
2019-02-12T15:07:56.265Z,6.13
2019-02-12T15:10:26.024Z,5.37
2019-02-12T15:12:55.435Z,7.33
2019-02-12T15:15:24.841Z,7.30
2019-02-12T15:17:54.302Z,7.70
2019-02-12T15:20:23.676Z,6.25
2019-02-12T15:22:53.088Z,8.85
2019-02-12T15:25:22.521Z,6.70
2019-02-12T15:27:54.299Z,8.13
2019-02-12T15:30:23.730Z,6.20
2019-02-12T15:32:53.176Z,9.08
2019-02-12T15:35:22.608Z,5.77
2019-02-12T15:37:52.205Z,10.80
2019-02-12T15:40:21.961Z,11.20
2019-02-12T15:42:51.358Z,10.37
2019-02-12T15:45:20.836Z,8.35
2019-02-12T15:47:50.674Z,7.67
2019-02-12T15:50:21.256Z,9.60
2019-02-12T15:52:55.503Z,7.33
2019-02-12T15:55:27.023Z,16.87
2019-02-12T15:58:00.680Z,7.33
2019-02-12T16:00:31.132Z,6.12
2019-02-12T16:03:01.637Z,6.30
2019-02-12T16:05:32.800Z,5.42
2019-02-12T16:08:05.650Z,5.53
2019-02-12T16:10:37.604Z,5.90
2019-02-12T16:13:11.577Z,4.93
2019-02-12T16:15:43.513Z,4.63
2019-02-12T16:18:21.385Z,5.60
2019-02-12T16:20:51.468Z,4.97
2019-02-12T16:23:23.708Z,4.53
2019-02-12T16:25:59.519Z,4.37
2019-02-12T16:28:32.318Z,4.57
2019-02-12T16:31:01.796Z,4.33
2019-02-12T16:33:35.674Z,4.63
2019-02-12T16:36:05.583Z,4.50
2019-02-12T16:38:37.836Z,5.00
2019-02-12T16:41:07.798Z,4.30
2019-02-12T16:43:37.203Z,4.87
2019-02-12T16:46:18.237Z,4.20
2019-02-12T16:48:49.200Z,4.57
2019-02-12T16:51:18.842Z,5.20
2019-02-12T16:53:48.563Z,6.17
2019-02-12T16:56:19.173Z,5.70
2019-02-12T16:58:49.345Z,4.90
2019-02-12T17:01:18.904Z,5.30
2019-02-12T17:03:49.411Z,6.73
2019-02-12T17:06:23.389Z,5.40
2019-02-12T17:08:52.773Z,5.93
2019-02-12T17:11:22.725Z,4.97
2019-02-12T17:13:52.461Z,5.20
2019-02-12T17:16:23.696Z,4.72
2019-02-12T17:18:53.263Z,4.35
2019-02-12T17:21:22.865Z,9.33
2019-02-12T17:23:53.442Z,7.47
2019-02-12T17:26:24.640Z,12.17
2019-02-12T17:28:54.026Z,9.10
2019-02-12T17:31:23.544Z,7.70
2019-02-12T17:33:54.910Z,17.00
2019-02-12T17:36:24.375Z,11.43
2019-02-12T17:38:53.712Z,7.27
2019-02-12T17:41:25.446Z,5.92
2019-02-12T17:43:55.807Z,8.90
2019-02-12T17:46:25.180Z,7.97
2019-02-12T17:48:54.615Z,8.30
2019-02-12T17:51:24.295Z,8.30
2019-02-12T17:53:58.465Z,5.77
2019-02-12T17:56:30.216Z,5.77
2019-02-12T17:58:59.575Z,5.37
2019-02-12T18:01:28.977Z,5.17
2019-02-12T18:03:59.815Z,6.57
2019-02-12T18:06:30.877Z,5.40
2019-02-12T18:09:01.657Z,7.10
2019-02-12T18:11:32.022Z,6.03
2019-02-12T18:14:01.692Z,6.20
2019-02-12T18:16:31.293Z,5.40
2019-02-12T18:19:00.721Z,7.37
2019-02-12T18:21:30.460Z,5.47
2019-02-12T18:24:00.508Z,6.50
2019-02-12T18:26:33.668Z,11.70
2019-02-12T18:29:04.027Z,10.58
2019-02-12T18:31:33.376Z,13.60
2019-02-12T18:34:04.495Z,15.57
2019-02-12T18:36:37.747Z,9.93
2019-02-12T18:39:10.307Z,7.90
2019-02-12T18:41:40.188Z,8.00
2019-02-12T18:44:14.493Z,5.60
2019-02-12T18:46:43.921Z,5.63
2019-02-12T18:49:17.040Z,5.60
2019-02-12T18:51:47.652Z,6.53
2019-02-12T18:54:18.999Z,5.55
2019-02-12T18:56:55.329Z,6.03
2019-02-12T18:59:26.681Z,6.10
2019-02-12T19:02:00.682Z,8.37
2019-02-12T19:04:30.051Z,7.40
2019-02-12T19:07:02.822Z,8.03
2019-02-12T19:09:32.727Z,7.08
2019-02-12T19:12:03.994Z,8.88
2019-02-12T19:14:34.897Z,8.97
2019-02-12T19:17:07.516Z,8.30
2019-02-12T19:19:38.770Z,6.83
2019-02-12T19:22:09.154Z,6.87
2019-02-12T19:24:41.828Z,5.57
2019-02-12T19:27:12.214Z,5.75
2019-02-12T19:29:41.621Z,5.47
2019-02-12T19:32:11.028Z,5.80
2019-02-12T19:34:40.431Z,6.83
2019-02-12T19:37:11.255Z,8.77
2019-02-12T19:39:41.002Z,15.50
2019-02-12T19:42:11.072Z,10.50
2019-02-12T19:44:44.151Z,7.33
2019-02-12T19:47:14.558Z,7.30
2019-02-12T19:49:46.155Z,7.40
2019-02-12T19:53:16.169Z,9.20
2019-02-12T20:08:12.330Z,8.93
2019-02-12T20:23:18.122Z,8.45
2019-02-12T20:25:50.353Z,10.93
2019-02-12T20:28:19.757Z,10.87
2019-02-12T20:30:49.286Z,9.03
2019-02-12T20:33:18.667Z,9.70
2019-02-12T20:35:48.345Z,8.57
2019-02-12T20:38:18.834Z,9.15
2019-02-12T20:40:48.305Z,7.70
2019-02-12T20:43:18.497Z,8.35
2019-02-12T20:45:48.150Z,7.37
2019-02-12T20:48:18.235Z,8.10
2019-02-12T20:50:50.904Z,8.43
2019-02-12T20:53:20.877Z,9.00
2019-02-12T20:55:50.381Z,13.00
2019-02-12T20:58:20.337Z,14.55
2019-02-12T21:00:53.257Z,14.57
2019-02-12T21:03:22.743Z,15.60
2019-02-12T21:05:53.213Z,13.93
2019-02-12T21:08:28.168Z,12.97
2019-02-12T21:10:57.545Z,12.40
2019-02-12T21:13:27.875Z,12.30
2019-02-12T21:15:57.541Z,11.30
2019-02-12T21:18:27.368Z,12.07
2019-02-12T21:20:56.784Z,11.20
2019-02-12T21:23:30.176Z,11.93
2019-02-12T21:26:00.689Z,11.60
2019-02-12T21:28:32.703Z,10.65
2019-02-12T21:31:02.184Z,10.95
2019-02-12T21:33:32.283Z,12.00
2019-02-12T21:36:02.399Z,12.33
2019-02-12T21:38:32.432Z,12.60
2019-02-12T21:41:02.472Z,11.23
2019-02-12T21:43:31.868Z,11.30
2019-02-12T21:46:03.843Z,11.90
2019-02-12T21:48:33.256Z,12.00
2019-02-12T21:51:02.864Z,12.47
2019-02-12T21:53:32.875Z,13.23
2019-02-12T21:56:04.440Z,13.53
2019-02-12T21:58:34.089Z,11.97
2019-02-12T22:01:06.421Z,12.73
2019-02-12T22:03:36.408Z,12.73
2019-02-12T22:06:06.793Z,12.40
2019-02-12T22:08:39.954Z,12.30
2019-02-12T22:11:09.327Z,11.30
2019-02-12T22:13:38.852Z,12.87
2019-02-12T22:16:14.247Z,13.30
2019-02-12T22:18:43.665Z,12.70
2019-02-12T22:21:13.413Z,12.40
2019-02-12T22:23:44.562Z,13.00
2019-02-12T22:26:14.391Z,13.33
2019-02-12T22:28:46.591Z,12.70
2019-02-12T22:31:17.664Z,12.40
2019-02-12T22:33:47.141Z,12.13
2019-02-12T22:36:18.178Z,12.35
2019-02-12T22:38:48.820Z,13.17
2019-02-12T22:41:18.179Z,13.65
2019-02-12T22:43:47.598Z,14.03
2019-02-12T22:46:19.699Z,13.90
2019-02-12T22:48:51.118Z,13.85
2019-02-12T22:51:22.703Z,14.63
2019-02-12T22:53:52.137Z,14.20
2019-02-12T22:56:25.667Z,13.22
2019-02-12T22:58:55.031Z,16.23
2019-02-12T23:01:39.403Z,14.20
2019-02-12T23:04:09.328Z,15.57
2019-02-12T23:06:38.757Z,14.37
2019-02-12T23:09:17.606Z,14.87
2019-02-12T23:11:49.893Z,14.73
2019-02-12T23:14:19.744Z,14.00
2019-02-12T23:16:50.898Z,14.38
2019-02-12T23:19:21.850Z,15.40
2019-02-12T23:21:51.821Z,15.00
2019-02-12T23:24:22.574Z,15.28
2019-02-12T23:26:52.172Z,15.13
2019-02-12T23:29:23.519Z,16.32
2019-02-12T23:31:53.269Z,18.93
2019-02-12T23:34:22.649Z,16.67
2019-02-12T23:36:53.765Z,17.15
2019-02-12T23:39:23.390Z,15.00
2019-02-12T23:41:54.714Z,14.70
2019-02-12T23:44:26.283Z,13.53
2019-02-12T23:46:59.612Z,13.30
2019-02-12T23:49:29.020Z,14.47
2019-02-12T23:51:58.417Z,14.23
2019-02-12T23:54:27.842Z,14.30
2019-02-12T23:57:00.173Z,13.57
2019-02-12T23:59:30.511Z,15.03
